createdAt,value
2023-05-13T00:00:31.735Z,75.99
2023-05-13T00:02:58.465Z,76.51
2023-05-13T00:09:45.976Z,77.11
2023-05-13T00:12:32.432Z,76.59
2023-05-13T00:15:14.157Z,76.40
2023-05-13T00:17:40.733Z,76.37
2023-05-13T00:20:07.983Z,76.28
2023-05-13T00:22:34.545Z,75.84
2023-05-13T00:25:19.845Z,75.59
2023-05-13T00:27:46.430Z,75.83
2023-05-13T00:30:13.240Z,76.06
2023-05-13T00:32:39.793Z,75.51
2023-05-13T00:35:06.610Z,75.84
2023-05-13T00:38:31.273Z,75.69
2023-05-13T00:41:28.107Z,75.95
2023-05-13T00:43:56.829Z,75.14
2023-05-13T00:46:24.615Z,75.39
2023-05-13T00:48:51.950Z,75.16
2023-05-13T00:51:18.807Z,74.96
2023-05-13T00:53:45.571Z,74.76
2023-05-13T00:58:47.677Z,74.54
2023-05-13T01:01:45.000Z,74.45
2023-05-13T01:04:27.452Z,74.68
2023-05-13T01:11:05.949Z,74.87
2023-05-13T01:13:36.996Z,76.58
2023-05-13T01:16:25.772Z,75.61
2023-05-13T01:19:05.584Z,75.34
2023-05-13T01:21:36.319Z,75.66
2023-05-13T01:24:02.872Z,76.27
2023-05-13T01:26:29.559Z,75.91
2023-05-13T01:28:56.279Z,75.31
2023-05-13T01:31:24.114Z,74.89
2023-05-13T01:33:51.118Z,74.64
2023-05-13T01:37:08.722Z,75.00
2023-05-13T01:40:28.058Z,74.28
2023-05-13T01:42:58.252Z,74.12
2023-05-13T01:45:24.810Z,74.90
2023-05-13T01:47:51.369Z,74.82
2023-05-13T01:50:17.977Z,75.07
2023-05-13T01:52:44.537Z,74.76
2023-05-13T01:55:29.295Z,74.95
2023-05-13T01:57:55.867Z,74.78
2023-05-13T02:00:22.888Z,75.28
2023-05-13T02:02:49.724Z,75.41
2023-05-13T02:09:29.764Z,75.50
2023-05-13T02:11:56.330Z,74.92
2023-05-13T02:14:22.877Z,75.82
2023-05-13T02:16:49.543Z,75.94
2023-05-13T02:19:16.187Z,75.64
2023-05-13T02:21:43.683Z,76.14
2023-05-13T02:24:10.585Z,76.33
2023-05-13T02:26:37.235Z,77.05
2023-05-13T02:29:03.755Z,76.14
2023-05-13T02:31:30.321Z,76.10
2023-05-13T02:33:56.848Z,76.46
2023-05-13T02:36:45.511Z,76.49
2023-05-13T02:39:31.053Z,77.22
2023-05-13T02:41:57.965Z,77.70
2023-05-13T02:44:24.498Z,78.15
2023-05-13T02:46:51.407Z,77.90
2023-05-13T02:49:17.941Z,76.88
2023-05-13T02:51:44.532Z,77.14
2023-05-13T02:57:12.690Z,77.22
2023-05-13T02:59:39.241Z,77.90
2023-05-13T03:02:06.056Z,78.23
2023-05-13T03:04:32.591Z,77.36
2023-05-13T03:06:59.129Z,77.68
2023-05-13T03:09:44.702Z,77.36
2023-05-13T03:15:45.991Z,76.21
2023-05-13T03:18:12.729Z,76.69
2023-05-13T03:20:39.387Z,76.93
2023-05-13T03:23:07.003Z,76.64
2023-05-13T03:25:48.759Z,77.38
2023-05-13T03:28:15.444Z,77.72
2023-05-13T03:30:42.626Z,77.34
2023-05-13T03:33:09.409Z,76.87
2023-05-13T03:35:36.008Z,76.63
2023-05-13T03:38:02.536Z,76.85
2023-05-13T03:40:47.660Z,76.80
2023-05-13T03:43:14.300Z,76.92
2023-05-13T03:45:40.973Z,76.59
2023-05-13T03:48:07.521Z,76.55
2023-05-13T03:51:31.214Z,76.74
2023-05-13T03:57:01.773Z,75.82
2023-05-13T03:59:28.327Z,75.71
2023-05-13T04:01:57.822Z,75.70
2023-05-13T04:04:24.562Z,75.55
2023-05-13T04:06:51.146Z,75.69
2023-05-13T04:09:32.954Z,75.93
2023-05-13T04:11:59.504Z,76.34
2023-05-13T04:14:26.165Z,75.69
2023-05-13T04:16:52.732Z,76.00
2023-05-13T04:19:53.490Z,75.70
2023-05-13T04:25:58.178Z,75.25
2023-05-13T04:28:24.783Z,75.09
2023-05-13T04:30:51.329Z,76.25
2023-05-13T04:33:17.895Z,75.52
2023-05-13T04:35:44.677Z,76.37
2023-05-13T04:38:11.927Z,75.55
2023-05-13T04:40:50.644Z,75.05
2023-05-13T04:43:17.155Z,76.21
2023-05-13T04:45:47.036Z,74.99
2023-05-13T04:48:13.690Z,75.01
2023-05-13T04:54:23.270Z,75.61
2023-05-13T04:59:42.722Z,75.06
2023-05-13T05:02:09.435Z,75.42
2023-05-13T05:04:36.576Z,75.10
2023-05-13T05:07:03.184Z,74.93
2023-05-13T05:09:30.322Z,74.89
2023-05-13T05:11:57.079Z,74.57
2023-05-13T05:14:23.656Z,74.16
2023-05-13T05:16:50.408Z,74.95
2023-05-13T05:33:56.787Z,75.13
2023-05-13T05:36:27.883Z,75.03
2023-05-13T05:39:10.990Z,74.68
2023-05-13T05:41:37.575Z,74.78
2023-05-13T05:44:04.198Z,75.22
2023-05-13T05:46:31.621Z,74.90
2023-05-13T05:50:00.754Z,74.77
2023-05-13T05:53:22.692Z,77.54
2023-05-13T05:55:51.129Z,76.12
2023-05-13T05:58:18.989Z,76.85
2023-05-13T06:00:45.783Z,76.39
2023-05-13T06:03:12.527Z,76.84
2023-05-13T06:05:39.555Z,76.37
2023-05-13T06:08:06.257Z,75.68
2023-05-13T06:10:32.884Z,75.77
2023-05-13T06:12:59.383Z,75.38
2023-05-13T06:15:26.199Z,75.55
2023-05-13T06:17:52.859Z,75.82
2023-05-13T06:20:19.816Z,74.82
2023-05-13T06:22:46.574Z,74.55
2023-05-13T06:25:13.157Z,74.75
2023-05-13T06:27:42.326Z,74.42
2023-05-13T06:30:09.046Z,74.72
2023-05-13T06:32:35.664Z,74.46
2023-05-13T06:35:02.598Z,74.32
2023-05-13T06:37:29.136Z,74.07
2023-05-13T06:40:11.520Z,74.07
2023-05-13T06:42:40.549Z,74.90
2023-05-13T06:45:08.506Z,75.31
2023-05-13T06:47:35.809Z,74.65
2023-05-13T06:50:30.525Z,74.26
2023-05-13T06:53:17.114Z,74.42
2023-05-13T06:55:43.754Z,73.65
2023-05-13T06:58:10.664Z,74.67
2023-05-13T07:00:38.585Z,75.22
2023-05-13T07:03:06.776Z,75.62
2023-05-13T07:05:34.318Z,74.45
2023-05-13T07:08:21.362Z,74.16
2023-05-13T07:10:47.951Z,73.35
2023-05-13T07:13:14.595Z,73.19
2023-05-13T07:15:41.253Z,72.95
2023-05-13T07:18:09.147Z,72.61
2023-05-13T07:37:52.976Z,72.43
2023-05-13T07:40:21.186Z,71.26
2023-05-13T07:42:48.182Z,70.49
2023-05-13T07:45:14.766Z,71.68
2023-05-13T07:47:44.255Z,70.83
2023-05-13T07:50:11.779Z,70.31
2023-05-13T07:52:38.661Z,71.04
2023-05-13T07:55:06.007Z,70.39
2023-05-13T07:57:32.604Z,69.92
2023-05-13T08:05:19.652Z,69.38
2023-05-13T08:10:22.013Z,68.66
2023-05-13T08:12:53.554Z,68.53
2023-05-13T08:15:21.004Z,68.73
2023-05-13T08:17:47.811Z,69.73
2023-05-13T08:20:15.252Z,70.04
2023-05-13T08:22:42.977Z,69.60
2023-05-13T08:25:13.355Z,69.21
2023-05-13T08:27:39.919Z,69.32
2023-05-13T08:30:07.302Z,69.38
2023-05-13T08:32:34.216Z,69.12
2023-05-13T08:35:01.392Z,69.60
2023-05-13T08:37:28.376Z,68.36
2023-05-13T08:39:56.558Z,68.99
2023-05-13T08:53:13.808Z,69.96
2023-05-13T08:55:40.561Z,71.92
2023-05-13T08:58:07.878Z,71.67
2023-05-13T09:00:35.187Z,70.60
2023-05-13T09:03:05.165Z,68.81
2023-05-13T09:05:37.760Z,67.98
2023-05-13T09:08:09.562Z,67.68
2023-05-13T09:10:37.434Z,67.61
2023-05-13T09:13:04.876Z,68.71
2023-05-13T09:15:32.195Z,67.13
2023-05-13T09:18:01.235Z,66.83
2023-05-13T09:20:28.289Z,66.22
2023-05-13T09:23:07.094Z,65.69
2023-05-13T09:25:34.804Z,64.92
2023-05-13T09:28:03.816Z,64.52
2023-05-13T09:30:35.219Z,64.26
2023-05-13T09:33:13.514Z,64.65
2023-05-13T09:35:41.427Z,64.05
2023-05-13T09:40:59.793Z,64.53
2023-05-13T09:43:27.556Z,64.73
2023-05-13T09:45:55.885Z,64.38
2023-05-13T09:48:27.060Z,63.56
2023-05-13T09:50:55.388Z,63.55
2023-05-13T09:53:22.290Z,63.45
2023-05-13T09:55:51.765Z,64.00
2023-05-13T09:58:22.113Z,63.91
2023-05-13T10:09:10.409Z,61.11
2023-05-13T10:11:37.124Z,60.17
2023-05-13T10:14:06.564Z,61.10
2023-05-13T10:16:33.709Z,62.01
2023-05-13T10:19:01.009Z,60.55
2023-05-13T10:21:28.192Z,61.96
2023-05-13T10:23:59.423Z,61.08
2023-05-13T10:26:26.428Z,61.10
2023-05-13T10:40:02.784Z,60.48
2023-05-13T10:42:55.376Z,60.64
2023-05-13T10:45:32.187Z,59.94
2023-05-13T10:48:07.065Z,60.74
2023-05-13T10:50:36.937Z,61.81
2023-05-13T10:53:09.093Z,61.10
2023-05-13T10:55:47.174Z,60.54
2023-05-13T10:58:15.267Z,60.84
2023-05-13T11:00:51.454Z,60.20
2023-05-13T11:03:18.189Z,60.75
2023-05-13T11:05:47.397Z,60.03
2023-05-13T11:08:36.182Z,59.57
2023-05-13T11:11:21.015Z,59.64
2023-05-13T11:13:53.234Z,59.55
2023-05-13T11:16:21.123Z,60.72
2023-05-13T11:18:49.189Z,60.28
2023-05-13T11:21:16.568Z,60.04
2023-05-13T11:23:56.788Z,60.35
2023-05-13T11:26:23.781Z,60.57
2023-05-13T11:28:58.146Z,61.22
2023-05-13T11:31:27.260Z,60.99
2023-05-13T11:34:13.271Z,60.72
2023-05-13T11:36:47.680Z,61.27
2023-05-13T11:50:57.179Z,61.15
2023-05-13T11:53:25.788Z,60.86
2023-05-13T11:55:52.483Z,60.62
2023-05-13T11:58:21.737Z,60.11
2023-05-13T12:00:48.355Z,60.86
2023-05-13T12:03:16.323Z,60.99
2023-05-13T12:05:44.689Z,60.77
2023-05-13T12:08:11.768Z,60.93
2023-05-13T12:10:45.600Z,60.83
2023-05-13T12:13:12.993Z,60.48
2023-05-13T12:15:40.457Z,59.76
2023-05-13T12:18:07.669Z,60.47
2023-05-13T12:20:34.893Z,60.28
2023-05-13T12:23:02.226Z,60.38
2023-05-13T12:25:38.348Z,60.42
2023-05-13T12:30:42.234Z,61.41
2023-05-13T12:33:16.699Z,59.40
2023-05-13T12:35:44.123Z,60.30
2023-05-13T12:38:16.743Z,61.52
2023-05-13T12:40:44.691Z,59.73
2023-05-13T12:43:12.816Z,59.23
2023-05-13T12:45:42.618Z,58.70
2023-05-13T12:48:12.824Z,58.81
2023-05-13T12:50:39.565Z,59.29
2023-05-13T12:53:15.126Z,59.06
2023-05-13T12:55:41.808Z,58.86
2023-05-13T13:00:43.814Z,58.77
2023-05-13T13:03:12.707Z,59.21
2023-05-13T13:05:42.059Z,58.65
2023-05-13T13:08:08.696Z,61.79
2023-05-13T13:10:35.292Z,59.03
2023-05-13T13:13:02.580Z,58.87
2023-05-13T13:15:29.160Z,59.17
2023-05-13T13:20:30.986Z,58.90
2023-05-13T13:22:59.797Z,58.52
2023-05-13T13:25:29.071Z,58.04
2023-05-13T13:27:56.190Z,58.45
2023-05-13T13:30:22.874Z,59.11
2023-05-13T13:32:51.228Z,58.37
2023-05-13T13:35:21.072Z,58.95
2023-05-13T13:37:48.037Z,58.97
2023-05-13T13:40:14.770Z,59.92
2023-05-13T13:42:45.031Z,59.00
2023-05-13T13:45:14.438Z,58.42
2023-05-13T13:56:22.338Z,57.80
2023-05-13T13:58:51.764Z,57.71
2023-05-13T14:01:20.079Z,57.08
2023-05-13T14:03:55.089Z,56.83
2023-05-13T14:06:29.514Z,58.32
2023-05-13T14:09:01.345Z,57.13
2023-05-13T14:11:27.944Z,56.47
2023-05-13T14:14:00.618Z,56.97
2023-05-13T14:16:27.300Z,56.87
2023-05-13T14:18:56.989Z,57.91
2023-05-13T14:21:23.731Z,56.41
2023-05-13T14:23:50.424Z,55.93
2023-05-13T14:26:17.152Z,56.41
2023-05-13T14:28:44.121Z,56.90
2023-05-13T14:31:13.034Z,56.13
2023-05-13T14:33:39.773Z,56.14
2023-05-13T14:36:21.457Z,55.97
2023-05-13T14:38:48.669Z,56.44
2023-05-13T14:41:19.874Z,55.54
2023-05-13T14:43:52.994Z,56.02
2023-05-13T14:46:19.599Z,55.92
2023-05-13T14:48:46.696Z,56.79
2023-05-13T14:51:13.708Z,56.64
2023-05-13T14:53:42.344Z,56.81
2023-05-13T14:56:08.953Z,56.71
2023-05-13T14:58:36.245Z,56.72
2023-05-13T15:01:02.913Z,56.43
2023-05-13T15:03:29.605Z,56.94
2023-05-13T15:06:07.080Z,56.49
2023-05-13T15:08:33.829Z,57.07
2023-05-13T15:11:09.298Z,57.67
2023-05-13T15:13:44.106Z,56.96
2023-05-13T15:16:11.542Z,56.42
2023-05-13T15:18:39.689Z,57.16
2023-05-13T15:23:47.932Z,57.07
2023-05-13T15:26:15.567Z,57.58
2023-05-13T15:28:42.138Z,56.87
2023-05-13T15:31:08.806Z,57.32
2023-05-13T15:33:35.555Z,57.29
2023-05-13T15:41:25.899Z,57.17
2023-05-13T15:43:52.528Z,56.71
2023-05-13T15:46:19.364Z,56.28
2023-05-13T15:48:53.813Z,56.29
2023-05-13T15:51:25.084Z,56.39
2023-05-13T15:53:52.831Z,56.20
2023-05-13T15:56:21.616Z,56.53
2023-05-13T15:58:48.171Z,56.94
2023-05-13T16:01:14.744Z,56.48
2023-05-13T16:03:41.367Z,56.36
2023-05-13T16:06:08.001Z,57.79
2023-05-13T16:08:34.635Z,56.96
2023-05-13T16:11:01.192Z,57.68
2023-05-13T16:13:27.776Z,58.24
2023-05-13T16:15:54.524Z,57.20
2023-05-13T16:18:21.310Z,57.00
2023-05-13T16:20:47.980Z,57.13
2023-05-13T16:23:14.565Z,57.11
2023-05-13T16:25:42.620Z,56.90
2023-05-13T16:28:10.854Z,56.56
2023-05-13T16:30:37.770Z,56.56
2023-05-13T16:33:04.567Z,57.36
2023-05-13T16:35:31.184Z,56.85
2023-05-13T16:37:57.753Z,56.56
2023-05-13T16:40:24.694Z,56.43
2023-05-13T16:42:51.603Z,56.07
2023-05-13T16:45:18.286Z,56.46
2023-05-13T16:47:44.985Z,55.99
2023-05-13T16:50:11.573Z,55.75
2023-05-13T16:52:38.190Z,55.99
2023-05-13T16:55:05.538Z,56.10
2023-05-13T16:57:32.673Z,55.99
2023-05-13T16:59:59.230Z,55.76
2023-05-13T17:02:27.290Z,55.72
2023-05-13T17:04:53.950Z,55.47
2023-05-13T17:07:20.572Z,55.25
2023-05-13T17:09:47.567Z,55.48
2023-05-13T17:12:14.429Z,55.20
2023-05-13T17:19:51.475Z,55.58
2023-05-13T17:22:18.094Z,55.27
2023-05-13T17:24:44.630Z,54.98
2023-05-13T17:27:11.390Z,55.89
2023-05-13T17:29:39.855Z,55.53
2023-05-13T17:32:06.900Z,56.38
2023-05-13T17:34:33.489Z,57.56
2023-05-13T17:37:00.267Z,57.31
2023-05-13T17:44:50.977Z,58.16
2023-05-13T17:47:17.567Z,57.06
2023-05-13T17:49:44.113Z,57.07
2023-05-13T17:52:10.865Z,56.92
2023-05-13T17:58:23.881Z,57.88
2023-05-13T18:00:50.569Z,57.22
2023-05-13T18:03:17.511Z,57.89
2023-05-13T18:05:44.207Z,57.97
2023-05-13T18:08:11.179Z,57.87
2023-05-13T18:10:37.845Z,58.29
2023-05-13T18:13:04.428Z,58.53
2023-05-13T18:15:31.126Z,58.96
2023-05-13T18:17:57.808Z,58.68
2023-05-13T18:20:24.731Z,59.03
2023-05-13T18:22:51.436Z,59.18
2023-05-13T18:25:18.123Z,59.88
2023-05-13T18:27:44.732Z,59.66
2023-05-13T18:30:11.884Z,60.14
2023-05-13T18:32:38.483Z,59.92
2023-05-13T18:35:05.568Z,60.05
2023-05-13T18:37:32.120Z,59.66
2023-05-13T18:39:59.183Z,59.25
2023-05-13T18:42:26.231Z,59.56
2023-05-13T18:44:52.778Z,60.31
2023-05-13T18:47:19.464Z,59.90
2023-05-13T18:53:39.560Z,60.01
2023-05-13T18:55:10.876Z,60.29
2023-05-13T18:57:37.559Z,60.09
2023-05-13T19:00:04.555Z,60.10
2023-05-13T19:02:31.592Z,60.17
2023-05-13T19:04:58.547Z,61.43
2023-05-13T19:07:25.196Z,61.05
2023-05-13T19:09:51.785Z,61.41
2023-05-13T19:12:18.334Z,60.49
2023-05-13T19:14:45.013Z,61.16
2023-05-13T19:17:11.812Z,60.82
2023-05-13T19:19:38.456Z,61.34
2023-05-13T19:22:05.310Z,62.76
2023-05-13T19:24:31.887Z,61.64
2023-05-13T19:26:58.595Z,61.63
2023-05-13T19:29:25.178Z,62.29
2023-05-13T19:31:52.794Z,61.68
2023-05-13T19:34:19.477Z,61.74
2023-05-13T19:36:46.596Z,61.74
2023-05-13T19:39:13.246Z,61.03
2023-05-13T19:41:40.623Z,61.93
2023-05-13T19:44:07.407Z,62.29
2023-05-13T19:46:34.102Z,62.30
2023-05-13T19:49:00.766Z,63.35
2023-05-13T19:51:27.387Z,64.15
2023-05-13T19:53:53.963Z,63.81
2023-05-13T19:56:21.820Z,63.74
2023-05-13T19:58:48.728Z,63.52
2023-05-13T20:01:15.292Z,62.69
2023-05-13T20:03:42.049Z,63.12
2023-05-13T20:06:08.868Z,63.07
2023-05-13T20:08:35.901Z,63.29
2023-05-13T20:11:02.612Z,63.00
2023-05-13T20:13:29.149Z,62.71
2023-05-13T20:15:55.721Z,62.81
2023-05-13T20:18:22.317Z,62.50
2023-05-13T20:20:48.892Z,61.93
2023-05-13T20:23:15.506Z,61.76
2023-05-13T20:25:42.151Z,62.62
2023-05-13T20:28:24.414Z,62.02
2023-05-13T20:30:55.655Z,62.31
2023-05-13T20:33:22.222Z,62.08
2023-05-13T20:35:49.078Z,62.03
2023-05-13T20:39:08.856Z,62.00
2023-05-13T20:42:10.955Z,61.87
2023-05-13T20:44:37.774Z,62.69
2023-05-13T20:47:05.058Z,62.24
2023-05-13T20:49:31.880Z,61.69
2023-05-13T20:52:03.327Z,61.84
2023-05-13T20:54:29.936Z,62.71
2023-05-13T20:56:56.595Z,62.55
2023-05-13T20:59:23.148Z,61.79
2023-05-13T21:01:49.749Z,61.82
2023-05-13T21:04:16.570Z,62.86
2023-05-13T21:06:43.821Z,62.39
2023-05-13T21:09:10.408Z,62.80
2023-05-13T21:11:37.009Z,63.70
2023-05-13T21:14:18.901Z,63.48
2023-05-13T21:16:45.410Z,62.93
2023-05-13T21:19:24.859Z,62.94
2023-05-13T21:21:51.420Z,64.23
2023-05-13T21:28:17.009Z,63.24
2023-05-13T21:30:43.655Z,63.50
2023-05-13T21:33:10.949Z,63.53
2023-05-13T21:35:37.488Z,63.26
2023-05-13T21:38:11.595Z,63.15
2023-05-13T21:40:39.091Z,63.29
2023-05-13T21:43:05.682Z,63.83
2023-05-13T21:45:32.232Z,64.06
2023-05-13T21:47:58.898Z,63.82
2023-05-13T21:50:25.564Z,63.11
2023-05-13T21:52:52.219Z,64.75
2023-05-13T21:55:18.872Z,64.05
2023-05-13T22:00:29.322Z,64.53
2023-05-13T22:03:00.463Z,64.83
2023-05-13T22:05:27.660Z,64.72
2023-05-13T22:11:51.367Z,65.02
2023-05-13T22:14:17.960Z,64.00
2023-05-13T22:16:49.849Z,64.59
2023-05-13T22:19:21.258Z,64.65
2023-05-13T22:21:47.982Z,65.19
2023-05-13T22:24:14.625Z,65.22
2023-05-13T22:26:43.684Z,65.87
2023-05-13T22:29:10.315Z,65.56
2023-05-13T22:31:36.979Z,64.45
2023-05-13T22:34:03.678Z,64.32
2023-05-13T22:36:31.360Z,64.55
2023-05-13T22:38:58.019Z,65.00
2023-05-13T22:43:59.814Z,64.50
2023-05-13T22:46:26.468Z,64.21
2023-05-13T22:48:53.578Z,64.69
2023-05-13T22:52:13.084Z,64.38
2023-05-13T22:57:52.794Z,65.27
2023-05-13T23:00:20.012Z,64.48
2023-05-13T23:02:46.616Z,64.48
2023-05-13T23:05:13.269Z,63.88
2023-05-13T23:07:39.844Z,63.79
2023-05-13T23:10:06.875Z,63.53
2023-05-13T23:12:33.477Z,63.97
2023-05-13T23:15:00.075Z,64.85
2023-05-13T23:17:26.707Z,64.00
2023-05-13T23:19:53.293Z,63.84
2023-05-13T23:22:19.834Z,63.99
2023-05-13T23:24:46.504Z,63.64
2023-05-13T23:27:32.074Z,63.17
2023-05-13T23:29:59.246Z,63.19
2023-05-13T23:32:26.070Z,63.07
2023-05-13T23:34:52.683Z,63.63
2023-05-13T23:37:50.384Z,63.36
2023-05-13T23:40:40.953Z,63.13
2023-05-13T23:43:07.512Z,62.93
2023-05-13T23:45:34.197Z,63.11
2023-05-13T23:48:00.974Z,63.31
2023-05-13T23:50:27.635Z,63.03
2023-05-13T23:58:11.088Z,62.33
